ΕΜΥ, Εθνική Μετεωρολογική Υπηρεσία - Δελτία Καιρού, Προγνώσεις

ΑΕΡΟΝΑΥΤΙΛΙΑ

GREEK AIRPORTS CODES

TAF LGAL 231700Z 2318/2403 03025G35KT 9999 SCT010 BKN020 OVC060 PROB40 TEMPO 2318/2400 3000 SN SCT005 OVC020=

EUROPEAN AIRPORTS CODES